Time;durP1;ratioP1;P1;durP2;ratioP2;P2;SDS_P1;SDS_P2;PMS_P1;PMS_P2;Temp;Humidity;BMP_temperature;BMP_pressure;BME280_temperature;BME280_humidity;BME280_pressure;Samples;Min_cycle;Max_cycle;Signal;HPM_P1;HPM_P2
2022/05/07 00:02:35;;;;;;;14.20;12.80;;;13.20;99.90;;;;;;6276622;28;20229;-53
2022/05/07 00:05:38;;;;;;;13.07;11.87;;;13.20;99.90;;;;;;6272350;28;20757;-54
2022/05/07 00:08:41;;;;;;;13.07;11.83;;;13.10;99.90;;;;;;6272911;28;20702;-53
2022/05/07 00:11:43;;;;;;;14.93;12.67;;;13.10;99.90;;;;;;6269635;28;20241;-54
2022/05/07 00:14:46;;;;;;;16.20;14.53;;;13.10;99.90;;;;;;6258980;28;20319;-53
2022/05/07 00:18:03;;;;;;;14.10;12.80;;;13.10;99.90;;;;;;6256907;28;20242;-53
2022/05/07 00:21:08;;;;;;;12.53;11.30;;;13.00;99.90;;;;;;6258158;28;20481;-53
2022/05/07 00:24:10;;;;;;;13.43;12.03;;;13.00;99.90;;;;;;6257308;28;20711;-53
2022/05/07 00:27:13;;;;;;;12.07;11.10;;;13.00;99.90;;;;;;6254036;28;20254;-53
2022/05/07 00:30:16;;;;;;;11.87;10.77;;;13.00;99.90;;;;;;6255816;28;20443;-52
2022/05/07 00:33:20;;;;;;;11.27;10.30;;;13.00;99.90;;;;;;6261145;28;20563;-53
2022/05/07 00:36:23;;;;;;;11.57;10.33;;;13.00;99.90;;;;;;6280502;28;20742;-52
2022/05/07 00:39:26;;;;;;;11.90;10.80;;;13.00;99.90;;;;;;6280765;28;20340;-53
2022/05/07 00:42:29;;;;;;;11.83;10.73;;;13.00;99.90;;;;;;6254134;28;20561;-53
2022/05/07 00:45:32;;;;;;;11.37;10.30;;;13.00;99.90;;;;;;6257331;28;20244;-53
2022/05/07 00:48:36;;;;;;;11.40;10.40;;;13.00;99.90;;;;;;6256821;28;20435;-53
2022/05/07 00:51:39;;;;;;;11.03;10.13;;;13.10;99.90;;;;;;6256606;28;20437;-53
2022/05/07 00:54:42;;;;;;;10.43;9.63;;;13.10;99.90;;;;;;6256481;28;20257;-53
2022/05/07 00:57:45;;;;;;;10.20;9.40;;;13.00;99.90;;;;;;6254227;28;20317;-52
2022/05/07 01:00:47;;;;;;;10.23;9.27;;;13.10;99.90;;;;;;6256428;28;20375;-54
2022/05/07 01:03:52;;;;;;;9.20;8.47;;;13.10;99.90;;;;;;6262418;28;20323;-54
2022/05/07 01:06:55;;;;;;;9.27;8.47;;;13.10;99.90;;;;;;6271475;28;21028;-52
2022/05/07 01:09:58;;;;;;;8.10;7.60;;;13.10;99.90;;;;;;6276398;28;20272;-52
2022/05/07 01:13:02;;;;;;;8.63;8.03;;;13.20;99.90;;;;;;6280575;28;20298;-52
2022/05/07 01:16:05;;;;;;;7.50;6.93;;;13.20;99.90;;;;;;6281717;28;20625;-52
2022/05/07 01:19:11;;;;;;;7.80;7.30;;;13.20;99.90;;;;;;6271858;28;20246;-57
2022/05/07 01:22:16;;;;;;;7.07;6.70;;;13.30;99.90;;;;;;6256862;28;20622;-51
2022/05/07 01:25:20;;;;;;;7.47;6.97;;;13.20;99.90;;;;;;6259904;28;20850;-52
2022/05/07 01:28:22;;;;;;;7.90;7.30;;;13.30;99.90;;;;;;6259638;28;20234;-52
2022/05/07 01:31:26;;;;;;;10.10;8.47;;;13.30;99.90;;;;;;6260820;28;20610;-52
2022/05/07 01:34:29;;;;;;;7.47;7.07;;;13.40;99.90;;;;;;6266083;28;20230;-54
2022/05/07 01:37:33;;;;;;;7.40;6.90;;;13.40;99.90;;;;;;6276432;28;20718;-54
2022/05/07 01:40:36;;;;;;;7.20;6.70;;;13.40;99.90;;;;;;6281739;28;20229;-53
2022/05/07 01:43:38;;;;;;;7.80;7.20;;;13.40;99.90;;;;;;6285063;28;20579;-53
2022/05/07 01:50:02;;;;;;;6.93;6.43;;;13.40;99.90;;;;;;6262003;28;20311;-54
2022/05/07 01:53:12;;;;;;;6.70;6.30;;;13.50;99.90;;;;;;6266063;28;20322;-52
2022/05/07 01:56:14;;;;;;;6.77;6.17;;;13.50;99.90;;;;;;6258279;28;20738;-53
2022/05/07 01:59:17;;;;;;;6.50;6.20;;;13.50;99.90;;;;;;6259864;28;20279;-54
2022/05/07 02:02:20;;;;;;;6.30;6.00;;;13.50;99.90;;;;;;6262158;28;20388;-53
2022/05/07 02:05:30;;;;;;;6.33;6.10;;;13.50;99.90;;;;;;6268472;28;20238;-53
2022/05/07 02:08:34;;;;;;;6.13;5.93;;;13.50;99.90;;;;;;6275811;28;20500;-52
2022/05/07 02:11:37;;;;;;;5.37;5.10;;;13.50;99.90;;;;;;6275002;28;20240;-56
2022/05/07 02:14:39;;;;;;;7.20;6.47;;;13.50;99.90;;;;;;6286147;28;20243;-52
2022/05/07 02:17:44;;;;;;;5.90;5.50;;;13.50;99.90;;;;;;6282674;28;20237;-52
2022/05/07 02:20:47;;;;;;;5.60;5.30;;;13.60;99.90;;;;;;6260225;28;20238;-54
2022/05/07 02:23:51;;;;;;;5.80;5.43;;;13.60;99.90;;;;;;6260908;28;20238;-55
2022/05/07 02:26:54;;;;;;;6.13;5.63;;;13.60;99.90;;;;;;6255741;28;20237;-53
2022/05/07 02:29:56;;;;;;;6.63;6.03;;;13.70;99.90;;;;;;6270447;28;20886;-53
2022/05/07 02:33:00;;;;;;;7.30;6.30;;;13.60;99.90;;;;;;6281497;28;20278;-53
2022/05/07 02:36:02;;;;;;;6.60;6.20;;;13.60;99.90;;;;;;6274891;28;20237;-53
2022/05/07 02:39:06;;;;;;;7.20;6.70;;;13.60;99.90;;;;;;6282013;28;20844;-53
2022/05/07 02:45:30;;;;;;;6.10;5.80;;;13.50;99.90;;;;;;6284790;28;20400;-53
2022/05/07 02:48:35;;;;;;;6.83;6.37;;;13.60;99.90;;;;;;6260166;28;20822;-52
2022/05/07 02:51:38;;;;;;;7.00;6.50;;;13.60;99.90;;;;;;6259121;28;20257;-53
2022/05/07 02:54:43;;;;;;;6.37;6.07;;;13.70;99.90;;;;;;6259921;28;20512;-54
2022/05/07 02:57:46;;;;;;;6.23;5.73;;;13.70;99.90;;;;;;6257021;28;20472;-53
2022/05/07 03:00:50;;;;;;;5.13;4.83;;;13.60;99.90;;;;;;6266324;28;20320;-53
2022/05/07 03:03:53;;;;;;;5.07;4.87;;;13.70;99.90;;;;;;6265625;28;20290;-50
2022/05/07 03:06:56;;;;;;;5.20;5.00;;;13.70;99.90;;;;;;6274537;28;20253;-51
2022/05/07 03:10:00;;;;;;;6.10;5.60;;;13.70;99.90;;;;;;6282391;28;20306;-52
2022/05/07 03:13:15;;;;;;;6.10;5.70;;;13.70;99.90;;;;;;6282022;28;20339;-52
2022/05/07 03:16:18;;;;;;;5.93;5.63;;;13.60;99.90;;;;;;6284130;28;20817;-53
2022/05/07 03:19:21;;;;;;;4.93;4.83;;;13.70;99.90;;;;;;6282706;28;20242;-52
2022/05/07 03:22:23;;;;;;;5.60;5.30;;;13.70;99.90;;;;;;6283177;28;20318;-52
2022/05/07 03:25:27;;;;;;;4.53;4.43;;;13.70;99.90;;;;;;6282031;28;20237;-52
2022/05/07 03:28:30;;;;;;;6.53;5.97;;;13.70;99.90;;;;;;6283764;28;20274;-53
2022/05/07 03:31:33;;;;;;;5.63;5.47;;;13.70;99.90;;;;;;6255885;28;20315;-53
2022/05/07 03:34:36;;;;;;;5.63;5.30;;;13.60;99.90;;;;;;6273684;28;20241;-53
2022/05/07 03:37:39;;;;;;;5.50;5.17;;;13.60;99.90;;;;;;6284408;28;20232;-53
2022/05/07 03:40:45;;;;;;;5.97;5.67;;;13.60;99.90;;;;;;6288645;28;20395;-53
2022/05/07 03:43:47;;;;;;;6.63;6.33;;;13.60;99.90;;;;;;6273855;28;20233;-54
2022/05/07 03:46:50;;;;;;;5.60;5.40;;;13.60;99.90;;;;;;6279987;28;20237;-54
2022/05/07 03:49:53;;;;;;;5.60;5.30;;;13.50;99.90;;;;;;6278836;28;20525;-52
2022/05/07 03:56:18;;;;;;;5.33;5.13;;;13.50;99.90;;;;;;6271095;28;20367;-52
2022/05/07 03:59:20;;;;;;;5.50;5.20;;;13.40;99.90;;;;;;6274445;28;20325;-53
2022/05/07 04:02:23;;;;;;;5.27;5.13;;;13.40;99.90;;;;;;6280730;28;20241;-53
2022/05/07 04:05:26;;;;;;;6.03;5.83;;;13.40;99.90;;;;;;6282050;28;20238;-52
2022/05/07 04:08:29;;;;;;;5.30;5.00;;;13.40;99.90;;;;;;6284859;28;20245;-53
2022/05/07 04:11:34;;;;;;;5.47;5.27;;;13.30;99.90;;;;;;6275700;28;20237;-52
2022/05/07 04:14:37;;;;;;;6.43;5.93;;;13.30;99.90;;;;;;6279927;28;20595;-54
2022/05/07 04:17:40;;;;;;;5.93;5.63;;;13.30;99.90;;;;;;6279768;28;20369;-53
2022/05/07 04:20:43;;;;;;;6.57;6.17;;;13.30;99.90;;;;;;6285578;28;20257;-53
2022/05/07 04:23:46;;;;;;;6.87;6.40;;;13.30;99.90;;;;;;6300968;28;20324;-52
2022/05/07 04:26:50;;;;;;;6.13;5.80;;;13.30;99.90;;;;;;6279714;28;20718;-54
2022/05/07 04:29:53;;;;;;;6.33;5.93;;;13.30;99.90;;;;;;6279728;28;20256;-49
2022/05/07 04:32:56;;;;;;;6.23;5.77;;;13.20;99.90;;;;;;6276993;28;20237;-54
2022/05/07 04:35:59;;;;;;;6.63;6.23;;;13.30;99.90;;;;;;6277466;28;20233;-52
2022/05/07 04:39:01;;;;;;;6.57;6.27;;;13.30;99.90;;;;;;6280796;28;20381;-52
2022/05/07 04:42:17;;;;;;;6.67;6.27;;;13.30;99.90;;;;;;6278427;28;20251;-53
2022/05/07 04:45:27;;;;;;;6.83;6.43;;;13.30;99.90;;;;;;6280836;28;20250;-53
2022/05/07 04:48:30;;;;;;;6.97;6.57;;;13.30;99.90;;;;;;6286715;28;20390;-53
2022/05/07 04:51:33;;;;;;;6.03;5.67;;;13.40;99.90;;;;;;6306367;28;20421;-52
2022/05/07 04:54:42;;;;;;;6.37;5.97;;;13.40;99.90;;;;;;6283809;28;20247;-52
2022/05/07 04:58:12;;;;;;;7.27;6.40;;;13.50;99.90;;;;;;6277959;28;20348;-53
2022/05/07 05:01:15;;;;;;;8.00;7.33;;;13.60;99.90;;;;;;6290614;28;20350;-51
2022/05/07 05:04:18;;;;;;;6.00;5.70;;;13.60;99.90;;;;;;6302448;28;20307;-55
2022/05/07 05:07:21;;;;;;;6.50;6.00;;;13.70;99.90;;;;;;6291847;28;20717;-52
2022/05/07 05:10:28;;;;;;;5.93;5.67;;;13.70;99.90;;;;;;6303206;28;20236;-53
2022/05/07 05:13:32;;;;;;;6.80;6.40;;;13.80;99.90;;;;;;6310205;28;20233;-53
2022/05/07 05:16:34;;;;;;;6.33;5.97;;;14.00;99.90;;;;;;6313711;28;20322;-55
2022/05/07 05:19:37;;;;;;;6.87;6.43;;;14.20;99.90;;;;;;6305480;28;20247;-53
2022/05/07 05:22:46;;;;;;;6.50;6.00;;;14.40;99.90;;;;;;6313619;28;20635;-53
2022/05/07 05:25:48;;;;;;;6.27;5.87;;;14.70;99.90;;;;;;6300764;28;20647;-54
2022/05/07 05:28:53;;;;;;;7.40;6.77;;;14.90;99.90;;;;;;6309648;28;20798;-52
2022/05/07 05:31:55;;;;;;;7.07;6.50;;;15.10;99.90;;;;;;6304774;28;20293;-53
2022/05/07 05:34:58;;;;;;;7.97;6.27;;;15.30;99.90;;;;;;6292480;28;20235;-53
2022/05/07 05:38:01;;;;;;;7.23;6.60;;;15.70;99.90;;;;;;6304412;28;20719;-53
2022/05/07 05:41:03;;;;;;;6.70;6.30;;;16.00;99.90;;;;;;6299688;28;20232;-52
2022/05/07 05:44:08;;;;;;;6.20;5.80;;;16.20;99.90;;;;;;6302642;28;20315;-53
2022/05/07 05:47:11;;;;;;;6.83;6.43;;;16.40;99.90;;;;;;6301207;27;20228;-53
2022/05/07 05:50:14;;;;;;;6.20;5.80;;;16.70;99.90;;;;;;6290172;27;20230;-53
2022/05/07 05:53:16;;;;;;;6.20;5.80;;;16.80;99.90;;;;;;6279821;28;20654;-54
2022/05/07 05:56:19;;;;;;;6.23;5.90;;;17.00;99.90;;;;;;6276372;28;20333;-53
2022/05/07 05:59:23;;;;;;;6.33;6.03;;;17.20;99.90;;;;;;6280019;28;20263;-53
2022/05/07 06:02:26;;;;;;;6.27;5.80;;;17.40;99.90;;;;;;6295528;28;20312;-53
2022/05/07 06:05:29;;;;;;;6.10;5.80;;;17.50;99.90;;;;;;6302187;28;20319;-54
2022/05/07 06:08:31;;;;;;;6.23;5.80;;;17.60;99.90;;;;;;6303283;28;20232;-51
2022/05/07 06:11:34;;;;;;;5.40;5.00;;;17.90;99.90;;;;;;6305362;28;20792;-54
2022/05/07 06:14:39;;;;;;;5.47;5.07;;;17.90;99.90;;;;;;6303891;28;20391;-54
2022/05/07 06:17:42;;;;;;;5.27;4.83;;;18.00;99.90;;;;;;6302771;28;20244;-54
2022/05/07 06:20:44;;;;;;;5.40;5.00;;;18.30;99.90;;;;;;6308078;28;20285;-52
2022/05/07 06:23:47;;;;;;;4.70;4.60;;;18.60;99.90;;;;;;6314242;28;20243;-53
2022/05/07 06:30:12;;;;;;;4.83;4.53;;;18.80;99.90;;;;;;6307728;28;21116;-54
2022/05/07 06:33:15;;;;;;;4.27;4.07;;;19.00;99.90;;;;;;6306573;28;20232;-53
2022/05/07 06:36:17;;;;;;;4.70;4.50;;;19.20;99.90;;;;;;6308063;28;20327;-53
2022/05/07 06:39:20;;;;;;;4.77;4.57;;;19.60;99.90;;;;;;6307554;28;20243;-54
2022/05/07 06:42:23;;;;;;;4.87;4.40;;;19.90;99.90;;;;;;6307141;28;20323;-53
2022/05/07 06:45:29;;;;;;;4.07;3.73;;;20.00;99.90;;;;;;6307235;28;20724;-54
2022/05/07 06:48:32;;;;;;;7.43;4.30;;;20.30;99.90;;;;;;6280476;28;20699;-54
2022/05/07 06:51:35;;;;;;;4.73;4.40;;;20.30;99.90;;;;;;6282233;28;20738;-54
2022/05/07 06:54:39;;;;;;;4.73;4.37;;;20.30;99.90;;;;;;6274051;28;20293;-53
2022/05/07 06:57:48;;;;;;;4.00;3.70;;;20.20;99.90;;;;;;6274484;28;20713;-53
2022/05/07 07:01:13;;;;;;;4.10;3.90;;;20.20;99.90;;;;;;6279688;28;20259;-54
2022/05/07 07:04:16;;;;;;;4.53;4.30;;;20.20;99.90;;;;;;6279776;28;20383;-54
2022/05/07 07:07:24;;;;;;;5.13;4.17;;;20.10;99.90;;;;;;6280490;28;20354;-55
2022/05/07 07:10:27;;;;;;;4.57;4.17;;;20.20;99.90;;;;;;6270308;28;20238;-54
2022/05/07 07:13:30;;;;;;;5.17;4.20;;;20.00;99.90;;;;;;6281255;28;20313;-55
2022/05/07 07:16:34;;;;;;;3.70;3.50;;;20.10;99.90;;;;;;6284245;28;20249;-53
2022/05/07 07:19:39;;;;;;;4.03;3.87;;;20.00;99.90;;;;;;6310546;28;20326;-53
2022/05/07 07:22:42;;;;;;;3.60;3.50;;;20.00;99.90;;;;;;6306717;28;20251;-54
2022/05/07 07:25:45;;;;;;;6.53;5.83;;;19.80;99.90;;;;;;6314581;28;20656;-53
2022/05/07 07:28:48;;;;;;;5.27;4.87;;;19.70;99.90;;;;;;6308563;28;20308;-53
2022/05/07 07:31:52;;;;;;;4.93;4.63;;;19.80;99.90;;;;;;6307594;28;20315;-53
2022/05/07 07:34:55;;;;;;;6.53;4.20;;;19.90;99.90;;;;;;6301070;28;20240;-52
2022/05/07 07:37:59;;;;;;;3.93;3.63;;;20.00;99.90;;;;;;6304973;28;20237;-53
2022/05/07 07:41:02;;;;;;;5.43;4.03;;;20.30;99.90;;;;;;6303203;28;20740;-53
2022/05/07 07:44:05;;;;;;;4.00;3.70;;;20.50;99.90;;;;;;6305046;28;20694;-53
2022/05/07 07:50:35;;;;;;;4.77;4.03;;;20.70;99.90;;;;;;6268978;28;20317;-53
2022/05/07 07:53:40;;;;;;;5.50;4.90;;;20.60;99.90;;;;;;6280640;28;20264;-54
2022/05/07 07:56:46;;;;;;;6.57;4.97;;;20.60;99.90;;;;;;6277744;28;20324;-52
2022/05/07 07:59:49;;;;;;;5.10;4.60;;;20.40;99.90;;;;;;6270112;28;20782;-52
2022/05/07 08:02:54;;;;;;;4.63;4.23;;;20.50;99.90;;;;;;6282266;28;20236;-53
2022/05/07 08:05:58;;;;;;;5.57;4.23;;;20.60;99.90;;;;;;6271352;28;20256;-53
2022/05/07 08:12:21;;;;;;;6.33;5.90;;;20.70;99.90;;;;;;6303355;28;20772;-53
2022/05/07 08:15:23;;;;;;;6.20;5.60;;;20.70;99.90;;;;;;6301741;28;20851;-53
2022/05/07 08:18:28;;;;;;;6.40;5.87;;;20.90;99.00;;;;;;6307156;28;20333;-56
2022/05/07 08:21:31;;;;;;;7.27;6.40;;;21.00;99.90;;;;;;6302334;28;20725;-54
2022/05/07 08:24:33;;;;;;;6.70;6.00;;;21.10;99.30;;;;;;6279631;28;20248;-53
2022/05/07 08:27:38;;;;;;;5.97;5.47;;;21.30;99.90;;;;;;6278331;28;20324;-54
2022/05/07 08:30:41;;;;;;;5.50;5.00;;;21.50;98.70;;;;;;6273405;28;20288;-54
2022/05/07 08:33:45;;;;;;;9.03;5.53;;;21.50;98.90;;;;;;6273594;28;20713;-52
2022/05/07 08:36:49;;;;;;;5.37;4.87;;;21.60;97.50;;;;;;6286205;28;20615;-53
2022/05/07 08:39:51;;;;;;;5.70;5.20;;;21.70;97.00;;;;;;6279447;28;20237;-54
2022/05/07 08:43:05;;;;;;;6.17;5.77;;;21.70;96.20;;;;;;6275388;28;20560;-53
2022/05/07 08:46:13;;;;;;;5.20;4.90;;;21.60;97.00;;;;;;6258801;28;20234;-54
2022/05/07 08:49:18;;;;;;;5.27;4.97;;;21.70;98.00;;;;;;6291478;28;20236;-53
2022/05/07 08:52:22;;;;;;;5.97;5.07;;;21.80;97.60;;;;;;6304745;28;20770;-53
2022/05/07 08:55:25;;;;;;;7.23;5.77;;;22.00;97.80;;;;;;6303604;28;20708;-53
2022/05/07 08:58:28;;;;;;;6.17;5.43;;;22.10;95.20;;;;;;6302246;28;20642;-53
2022/05/07 09:01:31;;;;;;;6.43;5.67;;;22.00;96.30;;;;;;6311808;28;20238;-54
2022/05/07 09:04:36;;;;;;;6.43;5.93;;;21.90;94.90;;;;;;6304288;28;20313;-52
2022/05/07 09:07:41;;;;;;;6.37;5.80;;;21.80;93.90;;;;;;6287866;28;20781;-54
2022/05/07 09:10:54;;;;;;;6.80;6.30;;;21.60;95.00;;;;;;6296618;28;20232;-55
2022/05/07 09:14:05;;;;;;;5.77;5.30;;;21.60;94.60;;;;;;6303765;28;20369;-54
2022/05/07 09:17:09;;;;;;;8.30;5.90;;;21.60;93.60;;;;;;6304502;28;20991;-53
2022/05/07 09:20:15;;;;;;;7.87;5.87;;;21.30;94.60;;;;;;6279958;28;20930;-53
2022/05/07 09:23:23;;;;;;;5.57;5.17;;;21.30;95.80;;;;;;6295266;28;20306;-55
2022/05/07 09:26:30;;;;;;;5.90;5.50;;;21.50;95.20;;;;;;6302996;28;20236;-54
2022/05/07 09:29:33;;;;;;;5.40;5.00;;;21.50;94.10;;;;;;6300178;28;20630;-53
2022/05/07 09:32:37;;;;;;;6.00;5.33;;;21.60;95.60;;;;;;6304702;28;20333;-53
2022/05/07 09:35:51;;;;;;;5.50;5.13;;;21.80;95.00;;;;;;6301773;28;20315;-54
2022/05/07 09:39:00;;;;;;;8.37;5.73;;;21.90;93.70;;;;;;6304130;28;20293;-53
2022/05/07 09:42:04;;;;;;;7.17;5.43;;;22.20;93.60;;;;;;6279525;28;20374;-53
2022/05/07 09:45:08;;;;;;;6.53;5.90;;;22.30;92.80;;;;;;6281804;28;20721;-55
2022/05/07 09:48:12;;;;;;;5.67;5.27;;;22.40;92.80;;;;;;6281489;28;20275;-52
2022/05/07 09:51:17;;;;;;;5.53;5.17;;;22.60;92.50;;;;;;6283822;28;20294;-53
2022/05/07 09:57:45;;;;;;;5.13;4.90;;;22.60;92.20;;;;;;6281465;28;20666;-54
2022/05/07 10:01:15;;;;;;;4.77;4.57;;;22.70;91.80;;;;;;6310453;28;20313;-53
2022/05/07 10:04:33;;;;;;;5.23;5.00;;;22.50;91.90;;;;;;6285156;28;20241;-54
2022/05/07 10:07:51;;;;;;;6.63;4.83;;;22.40;92.50;;;;;;6276654;28;20611;-53
2022/05/07 10:11:03;;;;;;;4.83;4.37;;;22.40;91.70;;;;;;6280520;28;20222;-53
2022/05/07 10:14:06;;;;;;;5.00;4.70;;;22.70;92.10;;;;;;6282802;28;20790;-53
2022/05/07 10:17:11;;;;;;;4.20;4.00;;;22.90;92.60;;;;;;6284054;28;20295;-55
2022/05/07 10:20:23;;;;;;;4.37;4.17;;;23.00;92.40;;;;;;6283788;28;21128;-53
2022/05/07 10:23:30;;;;;;;5.20;4.83;;;23.20;90.90;;;;;;6283006;28;20461;-53
2022/05/07 10:26:45;;;;;;;5.23;5.00;;;23.40;91.10;;;;;;6285588;28;20327;-53
2022/05/07 10:29:48;;;;;;;6.07;5.47;;;23.50;91.00;;;;;;6280383;28;20777;-55
2022/05/07 10:33:04;;;;;;;5.10;4.80;;;23.50;87.30;;;;;;6283615;28;20253;-53
2022/05/07 10:36:09;;;;;;;5.90;5.47;;;23.70;90.60;;;;;;6290849;28;20244;-51
2022/05/07 10:39:20;;;;;;;5.67;5.30;;;23.90;85.50;;;;;;6303393;28;20232;-53
2022/05/07 10:42:22;;;;;;;4.50;4.13;;;24.00;87.20;;;;;;6306286;28;20732;-54
2022/05/07 10:45:25;;;;;;;5.00;4.60;;;24.10;85.60;;;;;;6311847;28;20417;-53
2022/05/07 10:48:29;;;;;;;5.80;5.37;;;24.30;85.90;;;;;;6295099;28;20230;-54
2022/05/07 10:51:37;;;;;;;6.27;4.83;;;24.30;85.80;;;;;;6286417;28;20278;-55
2022/05/07 10:54:47;;;;;;;4.40;4.10;;;24.20;85.70;;;;;;6279347;28;20233;-54
2022/05/07 10:57:50;;;;;;;5.00;4.80;;;24.00;85.50;;;;;;6284055;28;20521;-54
2022/05/07 11:00:53;;;;;;;7.10;5.47;;;23.90;85.50;;;;;;6287126;28;20705;-51
2022/05/07 11:04:04;;;;;;;5.33;4.93;;;23.60;87.40;;;;;;6282129;28;20439;-53
2022/05/07 11:07:07;;;;;;;6.27;5.83;;;23.50;89.00;;;;;;6290642;27;20340;-54
2022/05/07 11:10:12;;;;;;;5.80;5.60;;;23.40;90.10;;;;;;6289497;28;20294;-52
2022/05/07 11:13:19;;;;;;;6.60;5.93;;;23.40;90.10;;;;;;6281255;28;20934;-53
2022/05/07 11:16:23;;;;;;;7.97;7.27;;;22.90;91.90;;;;;;6282874;28;20318;-53
2022/05/07 11:19:29;;;;;;;7.00;6.50;;;22.80;91.70;;;;;;6282799;28;20664;-55
2022/05/07 11:22:39;;;;;;;6.57;6.23;;;22.80;91.70;;;;;;6281544;28;20939;-53
2022/05/07 11:25:45;;;;;;;6.03;5.63;;;23.00;91.60;;;;;;6296160;28;20246;-54
2022/05/07 11:28:53;;;;;;;5.77;5.50;;;23.10;92.40;;;;;;6300846;28;20598;-52
2022/05/07 11:31:57;;;;;;;5.60;5.13;;;23.30;91.60;;;;;;6306892;28;20708;-54
2022/05/07 11:35:00;;;;;;;5.67;5.27;;;23.60;91.70;;;;;;6305511;28;20320;-54
2022/05/07 11:38:13;;;;;;;5.60;5.30;;;23.60;90.50;;;;;;6300955;28;20258;-55
2022/05/07 11:41:19;;;;;;;5.60;5.20;;;23.50;88.40;;;;;;6294332;28;20313;-53
2022/05/07 11:48:08;;;;;;;6.30;5.87;;;22.80;92.30;;;;;;6279227;28;20726;-54
2022/05/07 11:51:10;;;;;;;7.60;6.33;;;22.60;92.40;;;;;;6275756;28;20352;-53
2022/05/07 11:54:13;;;;;;;8.07;5.43;;;22.50;93.10;;;;;;6281593;28;20312;-53
2022/05/07 11:57:27;;;;;;;5.83;5.53;;;22.60;94.80;;;;;;6278009;28;20298;-54
2022/05/07 12:00:30;;;;;;;6.27;5.60;;;22.90;92.10;;;;;;6271886;28;20257;-54
2022/05/07 12:03:33;;;;;;;5.93;5.47;;;23.10;91.50;;;;;;6281927;28;20743;-54
2022/05/07 12:06:36;;;;;;;5.70;5.30;;;23.20;91.50;;;;;;6280313;28;20229;-53
2022/05/07 12:09:39;;;;;;;6.53;5.83;;;23.40;91.30;;;;;;6273576;28;20233;-53
2022/05/07 12:12:43;;;;;;;6.07;5.40;;;23.50;90.10;;;;;;6290729;28;20323;-53
2022/05/07 12:19:08;;;;;;;5.20;4.90;;;23.80;91.20;;;;;;6285422;28;20241;-55
2022/05/07 12:32:26;;;;;;;5.00;4.63;;;23.60;89.00;;;;;;6280588;28;20267;-54
2022/05/07 12:35:29;;;;;;;5.70;5.40;;;23.50;85.10;;;;;;6274641;28;20597;-54
2022/05/07 12:38:32;;;;;;;5.07;4.60;;;23.50;87.90;;;;;;6281255;28;20530;-53
2022/05/07 12:41:35;;;;;;;5.83;5.33;;;23.50;90.40;;;;;;6291384;28;20233;-52
2022/05/07 12:44:41;;;;;;;6.20;5.80;;;23.70;89.80;;;;;;6292691;28;20315;-55
2022/05/07 12:47:44;;;;;;;5.67;5.17;;;23.60;90.10;;;;;;6276252;28;20336;-52
2022/05/07 12:50:47;;;;;;;6.47;5.63;;;23.30;91.60;;;;;;6280045;28;20863;-54
2022/05/07 12:53:50;;;;;;;6.30;5.87;;;23.40;90.50;;;;;;6294804;28;20875;-52
2022/05/07 12:56:53;;;;;;;4.80;4.50;;;23.30;91.20;;;;;;6295806;28;20415;-53
2022/05/07 12:59:57;;;;;;;6.23;4.50;;;23.50;91.40;;;;;;6305446;28;20759;-53
2022/05/07 13:03:02;;;;;;;5.77;5.17;;;23.90;85.50;;;;;;6304957;28;20227;-54
2022/05/07 13:06:04;;;;;;;5.80;5.30;;;24.10;85.70;;;;;;6302279;28;20267;-54
2022/05/07 13:09:07;;;;;;;5.60;5.10;;;24.20;85.70;;;;;;6312586;28;20807;-53
2022/05/07 13:12:13;;;;;;;6.40;5.83;;;24.20;85.80;;;;;;6300911;28;20257;-53
2022/05/07 13:15:17;;;;;;;7.03;4.57;;;24.00;85.50;;;;;;6304727;28;20232;-55
2022/05/07 13:18:20;;;;;;;9.70;5.23;;;23.90;85.50;;;;;;6306972;28;20248;-54
2022/05/07 13:21:29;;;;;;;7.10;5.30;;;24.00;85.60;;;;;;6310574;28;20229;-53
2022/05/07 13:24:33;;;;;;;6.30;5.33;;;23.90;85.50;;;;;;6301784;28;20243;-53
2022/05/07 13:27:36;;;;;;;5.70;5.17;;;23.90;85.50;;;;;;6307512;28;20236;-47
2022/05/07 13:30:41;;;;;;;5.53;5.27;;;24.00;85.60;;;;;;6306980;28;20403;-53
2022/05/07 13:33:45;;;;;;;5.30;5.00;;;24.10;85.70;;;;;;6306870;28;20236;-55
2022/05/07 13:36:48;;;;;;;6.43;5.93;;;24.10;89.30;;;;;;6306611;28;20331;-53
2022/05/07 13:39:50;;;;;;;6.93;6.30;;;24.10;86.80;;;;;;6302208;28;20786;-55
2022/05/07 13:42:54;;;;;;;5.40;5.10;;;24.00;85.50;;;;;;6308617;28;20738;-53
2022/05/07 13:46:10;;;;;;;7.10;4.90;;;23.80;87.60;;;;;;6305308;28;20224;-55
2022/05/07 13:49:13;;;;;;;5.20;4.93;;;23.70;87.80;;;;;;6310379;28;20244;-54
2022/05/07 13:52:16;;;;;;;5.73;5.30;;;23.60;90.30;;;;;;6309998;28;20281;-54
2022/05/07 13:55:18;;;;;;;4.93;4.33;;;23.50;91.60;;;;;;6308500;28;20549;-54
2022/05/07 13:58:21;;;;;;;10.47;5.10;;;23.30;91.90;;;;;;6306111;28;20236;-53
2022/05/07 14:01:25;;;;;;;4.33;4.13;;;23.30;92.20;;;;;;6311635;28;20283;-53
2022/05/07 14:04:28;;;;;;;4.77;4.47;;;23.40;93.30;;;;;;6286361;28;20776;-53
2022/05/07 14:07:31;;;;;;;4.90;4.60;;;23.50;93.20;;;;;;6283352;28;20237;-54
2022/05/07 14:10:34;;;;;;;4.90;4.63;;;23.80;93.80;;;;;;6279221;28;20706;-53
2022/05/07 14:13:37;;;;;;;4.60;4.50;;;23.80;93.10;;;;;;6284007;28;20229;-53
2022/05/07 14:16:41;;;;;;;5.20;4.70;;;23.80;91.20;;;;;;6280299;28;20375;-53
2022/05/07 14:19:44;;;;;;;5.03;4.60;;;23.80;92.20;;;;;;6285265;28;20805;-53
2022/05/07 14:22:47;;;;;;;5.10;4.60;;;23.80;90.90;;;;;;6283542;28;20312;-54
2022/05/07 14:25:53;;;;;;;4.67;4.33;;;23.80;90.40;;;;;;6294450;28;20289;-52
2022/05/07 14:28:56;;;;;;;6.37;5.03;;;23.50;92.10;;;;;;6308233;28;20233;-54
2022/05/07 14:32:02;;;;;;;5.53;5.03;;;23.50;92.70;;;;;;6312598;28;20977;-53
2022/05/07 14:35:06;;;;;;;6.33;5.63;;;23.30;93.40;;;;;;6306143;28;20240;-53
2022/05/07 14:38:09;;;;;;;5.57;5.10;;;23.30;94.30;;;;;;6307992;28;20236;-54
2022/05/07 14:41:12;;;;;;;4.93;4.60;;;23.10;94.80;;;;;;6305933;28;20309;-54
2022/05/07 14:44:15;;;;;;;5.30;4.87;;;23.20;95.00;;;;;;6303225;28;20703;-53
2022/05/07 14:47:19;;;;;;;5.13;4.73;;;23.20;94.40;;;;;;6285197;28;20316;-53
2022/05/07 14:50:22;;;;;;;5.17;4.83;;;23.30;94.50;;;;;;6282399;28;20233;-53
2022/05/07 14:53:27;;;;;;;7.93;4.10;;;23.30;94.20;;;;;;6282057;28;20390;-53
2022/05/07 14:56:31;;;;;;;8.43;5.40;;;23.50;94.20;;;;;;6304880;27;20854;-53
2022/05/07 14:59:33;;;;;;;5.43;5.00;;;23.30;94.40;;;;;;6308146;27;20244;-54
2022/05/07 15:02:43;;;;;;;4.77;4.37;;;23.20;95.00;;;;;;6279119;28;20245;-54
2022/05/07 15:05:45;;;;;;;4.70;4.40;;;23.20;95.20;;;;;;6286581;28;20785;-52
2022/05/07 15:12:09;;;;;;;5.40;3.93;;;23.50;93.80;;;;;;6304600;27;20248;-53
2022/05/07 15:15:12;;;;;;;4.53;4.23;;;23.40;92.90;;;;;;6298500;28;20947;-53
2022/05/07 15:18:16;;;;;;;7.23;4.10;;;23.40;93.50;;;;;;6282978;28;20565;-53
2022/05/07 15:21:19;;;;;;;4.13;3.77;;;23.50;93.50;;;;;;6282504;28;20237;-53
2022/05/07 15:24:22;;;;;;;4.03;3.80;;;23.50;94.10;;;;;;6279628;28;20332;-54
2022/05/07 15:27:24;;;;;;;3.53;3.33;;;23.30;91.70;;;;;;6277841;28;20237;-53
2022/05/07 15:30:27;;;;;;;3.60;3.50;;;23.10;92.20;;;;;;6281277;28;20237;-55
2022/05/07 15:36:55;;;;;;;3.60;3.30;;;23.00;92.20;;;;;;6285444;28;20325;-53
2022/05/07 15:40:00;;;;;;;3.10;2.87;;;23.10;91.30;;;;;;6275644;28;20393;-55
2022/05/07 15:43:03;;;;;;;3.23;3.00;;;23.00;91.20;;;;;;6280337;28;20342;-53
2022/05/07 15:46:07;;;;;;;4.37;2.97;;;23.00;91.20;;;;;;6287523;28;20255;-54
2022/05/07 15:49:12;;;;;;;3.90;2.80;;;23.10;91.10;;;;;;6303994;28;20269;-54
2022/05/07 15:52:19;;;;;;;2.73;2.53;;;23.00;91.30;;;;;;6306880;28;20259;-54
2022/05/07 15:55:22;;;;;;;3.07;2.73;;;23.10;91.10;;;;;;6301803;28;20228;-53
2022/05/07 15:58:24;;;;;;;2.80;2.70;;;23.00;90.60;;;;;;6312643;28;20322;-53
2022/05/07 16:01:28;;;;;;;3.07;2.87;;;23.10;90.30;;;;;;6305215;28;20232;-54
2022/05/07 16:04:42;;;;;;;2.87;2.73;;;22.90;88.30;;;;;;6302936;28;20236;-53
2022/05/07 16:07:45;;;;;;;2.70;2.60;;;22.80;90.60;;;;;;6310581;28;20379;-53
2022/05/07 16:10:49;;;;;;;2.87;2.77;;;22.80;90.30;;;;;;6301700;28;20317;-53
2022/05/07 16:13:51;;;;;;;2.40;2.40;;;22.70;90.30;;;;;;6307125;28;20247;-54
2022/05/07 16:16:55;;;;;;;3.37;3.17;;;22.60;91.10;;;;;;6303873;28;25519;-54
2022/05/07 16:19:58;;;;;;;3.40;3.13;;;22.70;90.40;;;;;;6309327;28;20276;-53
2022/05/07 16:26:22;;;;;;;2.80;2.60;;;22.60;90.10;;;;;;6272260;28;20298;-53
2022/05/07 16:29:26;;;;;;;2.63;2.53;;;22.50;90.70;;;;;;6277234;28;20378;-54
2022/05/07 16:32:29;;;;;;;3.20;2.47;;;22.40;91.20;;;;;;6270723;28;20337;-53
2022/05/07 16:35:33;;;;;;;2.50;2.40;;;22.30;91.20;;;;;;6282022;28;20233;-53
2022/05/07 16:38:35;;;;;;;2.60;2.60;;;22.30;91.30;;;;;;6290199;28;20225;-53
2022/05/07 16:41:38;;;;;;;2.90;2.70;;;22.20;90.40;;;;;;6295019;28;20317;-53
2022/05/07 16:44:41;;;;;;;6.17;3.13;;;22.10;91.40;;;;;;6277983;28;20237;-53
2022/05/07 16:47:44;;;;;;;3.57;3.00;;;22.10;91.40;;;;;;6273650;28;20240;-53
2022/05/07 16:50:48;;;;;;;3.50;2.87;;;22.00;91.90;;;;;;6295048;28;20318;-53